Time;durP1;ratioP1;P1;durP2;ratioP2;P2;SDS_P1;SDS_P2;PMS_P1;PMS_P2;Temp;Humidity;BMP_temperature;BMP_pressure;BME280_temperature;BME280_humidity;BME280_pressure;Samples;Min_cycle;Max_cycle;Signal;HPM_P1;HPM_P2
2021/12/11 00:00:34;;;;;;;6.97;4.20;;;2.10;99.90;;;;;;5085570;28;20231;-59
2021/12/11 00:03:05;;;;;;;7.77;3.77;;;2.20;99.90;;;;;;5086016;28;20185;-61
2021/12/11 00:05:34;;;;;;;7.07;3.73;;;2.30;99.90;;;;;;5086206;28;20570;-59
2021/12/11 00:08:01;;;;;;;9.10;4.40;;;2.30;99.90;;;;;;5085886;28;20224;-59
2021/12/11 00:10:35;;;;;;;9.90;4.40;;;2.20;99.90;;;;;;5086244;28;20197;-59
2021/12/11 00:13:07;;;;;;;7.80;4.13;;;2.20;99.90;;;;;;5085469;28;20204;-59
2021/12/11 00:15:37;;;;;;;6.37;3.60;;;2.30;99.90;;;;;;5085278;28;20295;-60
2021/12/11 00:18:07;;;;;;;6.97;3.40;;;2.30;99.90;;;;;;5085876;28;20805;-60
2021/12/11 00:20:37;;;;;;;8.43;4.37;;;2.30;99.90;;;;;;5085873;28;20288;-59
2021/12/11 00:23:04;;;;;;;7.57;3.60;;;2.40;99.90;;;;;;5085582;28;20211;-60
2021/12/11 00:25:33;;;;;;;5.43;3.10;;;2.30;99.90;;;;;;5085423;28;20228;-59
2021/12/11 00:28:07;;;;;;;6.63;2.93;;;2.30;99.90;;;;;;5085513;28;20266;-61
2021/12/11 00:30:37;;;;;;;7.00;2.90;;;2.20;99.90;;;;;;5084611;28;20222;-59
2021/12/11 00:33:10;;;;;;;3.90;2.77;;;2.10;99.90;;;;;;5085000;28;20197;-60
2021/12/11 00:35:38;;;;;;;4.60;2.70;;;2.10;99.90;;;;;;5084809;28;20280;-60
2021/12/11 00:38:09;;;;;;;5.77;2.77;;;2.10;99.90;;;;;;5084911;28;20213;-59
2021/12/11 00:40:39;;;;;;;4.60;2.97;;;2.10;99.90;;;;;;5085243;28;20260;-59
2021/12/11 00:43:08;;;;;;;4.87;3.00;;;2.10;99.90;;;;;;5084235;28;20624;-59
2021/12/11 00:45:37;;;;;;;6.50;3.70;;;2.20;99.90;;;;;;5084549;28;20205;-59
2021/12/11 00:48:08;;;;;;;6.87;3.30;;;2.30;99.90;;;;;;5085257;28;20719;-60
2021/12/11 00:50:39;;;;;;;6.67;3.53;;;2.30;99.90;;;;;;5085520;28;20211;-60
2021/12/11 00:53:13;;;;;;;5.57;3.53;;;2.30;99.90;;;;;;5085151;28;20249;-59
2021/12/11 00:55:45;;;;;;;6.30;3.43;;;2.20;99.90;;;;;;5084709;28;20614;-59
2021/12/11 00:58:14;;;;;;;7.83;3.20;;;2.20;99.90;;;;;;5085149;28;20238;-60
2021/12/11 01:00:47;;;;;;;8.10;3.93;;;2.30;99.90;;;;;;5084555;28;20213;-60
2021/12/11 01:03:17;;;;;;;5.73;3.17;;;2.40;99.90;;;;;;5085165;28;20277;-59
2021/12/11 01:05:47;;;;;;;7.00;3.77;;;2.40;99.90;;;;;;5085044;28;20308;-60
2021/12/11 01:08:19;;;;;;;5.23;3.10;;;2.50;99.90;;;;;;5084723;28;20239;-60
2021/12/11 01:10:48;;;;;;;6.53;3.80;;;2.50;99.90;;;;;;5084797;28;20201;-60
2021/12/11 01:13:19;;;;;;;7.60;3.70;;;2.50;99.90;;;;;;5084546;28;20295;-59
2021/12/11 01:15:53;;;;;;;6.83;4.07;;;2.60;99.90;;;;;;5084313;28;20215;-59
2021/12/11 01:18:23;;;;;;;10.10;4.83;;;2.40;99.90;;;;;;5084997;28;20220;-59
2021/12/11 01:20:55;;;;;;;7.13;3.90;;;2.40;99.90;;;;;;5084782;28;20201;-59
2021/12/11 01:23:34;;;;;;;5.43;3.57;;;2.30;99.90;;;;;;5084458;28;20258;-59
2021/12/11 01:26:04;;;;;;;7.70;4.43;;;2.20;99.90;;;;;;5084746;28;20216;-60
2021/12/11 01:28:31;;;;;;;7.17;4.60;;;2.20;99.90;;;;;;5084645;28;20231;-61
2021/12/11 01:31:00;;;;;;;5.17;3.77;;;2.30;99.90;;;;;;5084079;28;20209;-60
2021/12/11 01:33:28;;;;;;;5.33;3.63;;;2.30;99.90;;;;;;5084841;28;20201;-59
2021/12/11 01:35:55;;;;;;;7.73;4.13;;;2.30;99.90;;;;;;5084743;28;20205;-60
2021/12/11 01:38:24;;;;;;;5.37;3.60;;;2.30;99.90;;;;;;5084295;28;20668;-59
2021/12/11 01:40:54;;;;;;;8.73;3.80;;;2.30;99.90;;;;;;5084965;28;20233;-59
2021/12/11 01:43:25;;;;;;;8.37;4.30;;;2.20;99.90;;;;;;5084348;28;20197;-60
2021/12/11 01:45:55;;;;;;;6.97;3.43;;;2.10;99.90;;;;;;5083761;28;20224;-59
2021/12/11 01:48:25;;;;;;;6.40;4.03;;;2.10;99.90;;;;;;5084938;28;20261;-60
2021/12/11 01:51:01;;;;;;;9.33;3.87;;;2.10;99.90;;;;;;5084604;28;20201;-59
2021/12/11 01:53:32;;;;;;;7.33;3.83;;;2.20;99.90;;;;;;5084055;28;20832;-59
2021/12/11 01:56:01;;;;;;;8.00;4.97;;;2.20;99.90;;;;;;5088455;28;20201;-60
2021/12/11 01:58:34;;;;;;;6.97;3.67;;;2.20;99.90;;;;;;5088392;28;20308;-60
2021/12/11 02:01:09;;;;;;;7.63;4.53;;;2.20;99.90;;;;;;5087822;28;20698;-60
2021/12/11 02:03:36;;;;;;;6.50;4.17;;;2.30;99.90;;;;;;5088569;28;20572;-59
2021/12/11 02:06:05;;;;;;;5.60;2.93;;;2.20;99.90;;;;;;5088311;28;20287;-60
2021/12/11 02:08:35;;;;;;;6.23;3.33;;;2.20;99.90;;;;;;5088121;28;20297;-61
2021/12/11 02:11:09;;;;;;;7.47;3.63;;;2.10;99.90;;;;;;5088331;28;20288;-60
2021/12/11 02:13:44;;;;;;;8.50;4.03;;;2.10;99.90;;;;;;5087790;28;20682;-60
2021/12/11 02:16:19;;;;;;;7.53;4.07;;;2.10;99.90;;;;;;5087628;28;20208;-59
2021/12/11 02:18:49;;;;;;;8.90;4.23;;;2.00;99.90;;;;;;5088303;28;20208;-59
2021/12/11 02:21:21;;;;;;;6.07;3.10;;;2.00;99.90;;;;;;5088140;28;20270;-60
2021/12/11 02:23:57;;;;;;;9.00;3.90;;;2.00;99.90;;;;;;5087672;28;20209;-60
2021/12/11 02:26:26;;;;;;;6.30;3.70;;;2.10;99.90;;;;;;5088011;28;20189;-61
2021/12/11 02:28:57;;;;;;;7.40;3.90;;;2.10;99.90;;;;;;5087658;28;20277;-59
2021/12/11 02:31:30;;;;;;;5.53;3.10;;;2.10;99.90;;;;;;5087411;28;20205;-60
2021/12/11 02:34:07;;;;;;;7.97;4.23;;;2.10;99.90;;;;;;5087869;28;20268;-59
2021/12/11 02:36:38;;;;;;;7.13;4.00;;;2.10;99.90;;;;;;5088096;28;20246;-59
2021/12/11 02:39:12;;;;;;;6.40;4.33;;;2.00;99.90;;;;;;5087777;28;20205;-59
2021/12/11 02:41:49;;;;;;;8.17;3.90;;;2.10;99.90;;;;;;5087850;28;20185;-60
2021/12/11 02:44:20;;;;;;;8.10;3.83;;;2.10;99.90;;;;;;5087847;28;20215;-59
2021/12/11 02:46:52;;;;;;;10.53;4.87;;;2.20;99.90;;;;;;5087296;28;20243;-60
2021/12/11 02:49:24;;;;;;;9.17;3.97;;;2.30;99.90;;;;;;5088102;28;20184;-60
2021/12/11 02:51:56;;;;;;;6.93;4.03;;;2.30;99.90;;;;;;5087717;28;20200;-60
2021/12/11 02:54:28;;;;;;;8.63;4.63;;;2.20;99.90;;;;;;5087016;28;20208;-59
2021/12/11 02:57:00;;;;;;;8.43;4.47;;;2.20;99.90;;;;;;5087204;28;20216;-60
2021/12/11 02:59:29;;;;;;;8.10;4.40;;;2.20;99.90;;;;;;5087293;28;20536;-60
2021/12/11 03:02:01;;;;;;;8.83;4.00;;;2.20;99.90;;;;;;5086855;28;20239;-60
2021/12/11 03:04:37;;;;;;;7.13;4.10;;;2.10;99.90;;;;;;5087239;28;20205;-60
2021/12/11 03:07:07;;;;;;;7.37;4.20;;;2.20;99.90;;;;;;5086385;28;20196;-60
2021/12/11 03:09:39;;;;;;;6.33;3.83;;;2.10;99.90;;;;;;5087148;28;20264;-59
2021/12/11 03:12:09;;;;;;;6.70;3.53;;;2.10;99.90;;;;;;5086939;28;20181;-60
2021/12/11 03:14:37;;;;;;;6.23;3.97;;;2.10;99.90;;;;;;5086871;28;20272;-59
2021/12/11 03:17:04;;;;;;;6.90;3.83;;;2.10;99.90;;;;;;5086801;28;20319;-59
2021/12/11 03:19:33;;;;;;;8.63;3.50;;;2.10;99.90;;;;;;5086994;28;20216;-59
2021/12/11 03:22:03;;;;;;;8.67;4.57;;;2.10;99.90;;;;;;5087155;28;20641;-61
2021/12/11 03:24:33;;;;;;;9.20;4.33;;;2.10;99.90;;;;;;5086308;28;20211;-59
2021/12/11 03:27:01;;;;;;;8.63;4.50;;;2.20;99.90;;;;;;5086652;28;20232;-60
2021/12/11 03:29:28;;;;;;;9.47;5.20;;;2.20;99.90;;;;;;5086948;28;20236;-60
2021/12/11 03:31:55;;;;;;;11.77;5.27;;;2.20;99.90;;;;;;5086195;28;20205;-61
2021/12/11 03:34:26;;;;;;;10.13;5.03;;;2.20;99.90;;;;;;5086662;28;20211;-60
2021/12/11 03:36:54;;;;;;;9.67;4.80;;;2.10;99.90;;;;;;5086204;28;20189;-59
2021/12/11 03:39:28;;;;;;;9.20;4.80;;;2.10;99.90;;;;;;5086526;28;20284;-60
2021/12/11 03:41:58;;;;;;;9.57;5.13;;;2.10;99.90;;;;;;5086411;28;20185;-60
2021/12/11 03:44:32;;;;;;;10.87;6.17;;;2.10;99.90;;;;;;5086280;28;20224;-60
2021/12/11 03:47:01;;;;;;;11.17;5.17;;;2.10;99.90;;;;;;5085559;28;20232;-59
2021/12/11 03:49:28;;;;;;;7.67;4.90;;;2.10;99.90;;;;;;5086655;28;20279;-60
2021/12/11 03:51:55;;;;;;;10.07;4.83;;;2.00;99.90;;;;;;5086330;28;20197;-60
2021/12/11 03:54:26;;;;;;;9.33;5.03;;;2.00;99.90;;;;;;5085739;28;20201;-60
2021/12/11 03:56:53;;;;;;;7.77;4.80;;;2.10;99.90;;;;;;5086204;28;20240;-60
2021/12/11 03:59:20;;;;;;;7.47;5.10;;;2.00;99.90;;;;;;5086322;28;20221;-61
2021/12/11 04:01:52;;;;;;;10.00;5.20;;;2.00;99.90;;;;;;5085666;28;20264;-59
2021/12/11 04:04:23;;;;;;;10.20;5.20;;;2.00;99.90;;;;;;5086132;28;20276;-60
2021/12/11 04:06:51;;;;;;;8.60;5.00;;;1.90;99.90;;;;;;5086064;28;20194;-60
2021/12/11 04:09:20;;;;;;;7.37;4.93;;;1.90;99.90;;;;;;5085830;28;20231;-60
2021/12/11 04:11:49;;;;;;;8.63;5.43;;;2.00;99.90;;;;;;5085795;28;20224;-60
2021/12/11 04:14:19;;;;;;;9.70;4.87;;;2.00;99.90;;;;;;5085583;28;20217;-60
2021/12/11 04:16:48;;;;;;;8.77;5.03;;;2.00;99.90;;;;;;5084912;28;20216;-60
2021/12/11 04:19:15;;;;;;;13.63;5.57;;;2.00;99.90;;;;;;5086065;28;20213;-61
2021/12/11 04:21:45;;;;;;;7.73;5.03;;;2.10;99.90;;;;;;5085821;28;20201;-61
2021/12/11 04:24:14;;;;;;;8.70;5.10;;;2.00;99.90;;;;;;5085198;28;20216;-60
2021/12/11 04:26:41;;;;;;;8.83;5.27;;;2.00;99.90;;;;;;5085558;28;20291;-60
2021/12/11 04:29:09;;;;;;;7.10;4.23;;;2.00;99.90;;;;;;5085367;28;20659;-59
2021/12/11 04:31:39;;;;;;;8.43;4.73;;;2.10;99.90;;;;;;5085093;28;20223;-60
2021/12/11 04:34:08;;;;;;;8.57;4.93;;;2.10;99.90;;;;;;5085500;28;20240;-59
2021/12/11 04:36:39;;;;;;;8.87;5.10;;;2.20;99.90;;;;;;5086199;28;20258;-58
2021/12/11 04:39:09;;;;;;;8.10;4.50;;;2.20;99.90;;;;;;5095158;28;20226;-58
2021/12/11 04:41:48;;;;;;;9.57;5.57;;;2.20;99.90;;;;;;5086081;28;20209;-58
2021/12/11 04:44:21;;;;;;;11.50;5.80;;;2.20;99.90;;;;;;5089207;28;20260;-59
2021/12/11 04:46:49;;;;;;;9.37;4.60;;;2.20;99.90;;;;;;5083603;28;20278;-59
2021/12/11 04:49:26;;;;;;;9.10;5.70;;;2.20;99.90;;;;;;5084118;28;20217;-59
2021/12/11 04:52:03;;;;;;;8.80;5.90;;;2.20;99.90;;;;;;5089525;28;20193;-59
2021/12/11 04:54:46;;;;;;;7.23;4.37;;;2.20;99.90;;;;;;5093010;28;20246;-60
2021/12/11 05:00:13;;;;;;;8.53;5.67;;;2.30;99.90;;;;;;5074242;28;20212;-60
2021/12/11 05:05:46;;;;;;;8.57;4.40;;;2.30;99.90;;;;;;5090952;28;20281;-59
2021/12/11 05:08:38;;;;;;;10.30;4.97;;;2.30;99.90;;;;;;5093676;28;20714;-60
2021/12/11 05:11:04;;;;;;;9.77;4.93;;;2.30;99.90;;;;;;5089138;28;20731;-59
2021/12/11 05:13:33;;;;;;;8.43;5.10;;;2.20;99.90;;;;;;5091316;28;20196;-59
2021/12/11 05:16:04;;;;;;;6.20;4.47;;;2.10;99.90;;;;;;5089624;28;20197;-59
2021/12/11 05:18:34;;;;;;;9.13;5.70;;;2.10;99.90;;;;;;5092469;28;20253;-59
2021/12/11 05:21:12;;;;;;;8.27;4.53;;;2.10;99.90;;;;;;5089922;28;20217;-61
2021/12/11 05:23:39;;;;;;;11.53;5.10;;;2.10;99.90;;;;;;5088596;28;20253;-59
2021/12/11 05:26:07;;;;;;;10.37;5.10;;;2.10;99.90;;;;;;5093002;28;20204;-59
2021/12/11 05:28:35;;;;;;;7.57;4.80;;;2.00;99.90;;;;;;5091289;28;20268;-59
2021/12/11 05:31:07;;;;;;;9.87;5.80;;;2.10;99.90;;;;;;5090701;28;20680;-59
2021/12/11 05:33:34;;;;;;;11.80;5.57;;;2.00;99.90;;;;;;5093903;28;20266;-60
2021/12/11 05:36:01;;;;;;;8.17;4.40;;;2.00;99.90;;;;;;5091596;28;20197;-59
2021/12/11 05:38:32;;;;;;;9.50;5.43;;;2.00;99.90;;;;;;5093383;28;20257;-59
2021/12/11 05:41:05;;;;;;;7.97;4.87;;;2.00;99.90;;;;;;5091369;28;20232;-60
2021/12/11 05:43:35;;;;;;;10.23;5.10;;;2.00;99.90;;;;;;5096652;28;20180;-59
2021/12/11 05:46:02;;;;;;;11.37;5.30;;;2.00;99.90;;;;;;5088350;28;20269;-59
2021/12/11 05:48:29;;;;;;;14.97;6.10;;;2.00;99.90;;;;;;5090654;28;20256;-59
2021/12/11 05:51:00;;;;;;;8.53;4.87;;;1.90;99.90;;;;;;5094302;28;20204;-59
2021/12/11 05:53:28;;;;;;;9.30;4.87;;;1.90;99.90;;;;;;5092876;28;20339;-59
2021/12/11 05:55:57;;;;;;;9.17;5.50;;;1.80;99.90;;;;;;5088797;28;20227;-59
2021/12/11 05:58:45;;;;;;;10.70;5.80;;;1.80;99.90;;;;;;5091647;28;20197;-59
2021/12/11 06:01:13;;;;;;;12.07;6.10;;;1.80;99.90;;;;;;5091774;28;20212;-59
2021/12/11 06:03:40;;;;;;;12.93;6.37;;;1.70;99.90;;;;;;5088479;28;20213;-60
2021/12/11 06:06:07;;;;;;;11.87;7.27;;;1.60;99.90;;;;;;5092734;28;20659;-59
2021/12/11 06:08:35;;;;;;;14.97;7.90;;;1.60;99.90;;;;;;5089828;28;20236;-59
2021/12/11 06:11:04;;;;;;;12.53;6.97;;;1.60;99.90;;;;;;5088660;28;20260;-59
2021/12/11 06:13:33;;;;;;;16.03;7.20;;;1.50;99.90;;;;;;5094283;28;20260;-58
2021/12/11 06:16:02;;;;;;;12.87;6.27;;;1.50;99.90;;;;;;5090153;28;20250;-59
2021/12/11 06:18:29;;;;;;;13.83;6.83;;;1.50;99.90;;;;;;5082329;28;20276;-59
2021/12/11 06:20:56;;;;;;;12.23;7.13;;;1.50;99.90;;;;;;5090702;28;20244;-59
2021/12/11 06:23:24;;;;;;;14.10;7.23;;;1.40;99.90;;;;;;5093873;28;20200;-60
2021/12/11 06:25:53;;;;;;;13.63;6.33;;;1.40;99.90;;;;;;5091415;28;20260;-58
2021/12/11 06:28:22;;;;;;;14.37;7.40;;;1.30;99.90;;;;;;5087936;28;20207;-58
2021/12/11 06:30:50;;;;;;;12.73;7.20;;;1.30;99.90;;;;;;5092023;28;20203;-58
2021/12/11 06:33:17;;;;;;;14.87;6.87;;;1.30;99.90;;;;;;5091471;28;20706;-58
2021/12/11 06:35:47;;;;;;;13.43;7.17;;;1.20;99.90;;;;;;5104013;28;20296;-59
2021/12/11 06:38:17;;;;;;;12.70;6.67;;;1.20;99.90;;;;;;5104482;28;20288;-59
2021/12/11 06:40:45;;;;;;;14.80;6.80;;;1.20;99.90;;;;;;5105979;28;20767;-59
2021/12/11 06:43:13;;;;;;;15.83;8.03;;;1.20;99.90;;;;;;5104442;28;20871;-60
2021/12/11 06:45:41;;;;;;;13.43;7.23;;;1.20;99.90;;;;;;5066799;28;20208;-60
2021/12/11 06:48:09;;;;;;;12.13;7.37;;;1.20;99.90;;;;;;5073521;28;20307;-59
2021/12/11 06:50:36;;;;;;;14.13;7.07;;;1.30;99.90;;;;;;5087675;28;20255;-59
2021/12/11 06:53:08;;;;;;;12.87;6.80;;;1.20;99.90;;;;;;5087458;28;20294;-59
2021/12/11 06:55:35;;;;;;;17.43;8.20;;;1.20;99.90;;;;;;5085834;28;20207;-59
2021/12/11 06:58:03;;;;;;;18.50;7.50;;;1.20;99.90;;;;;;5085546;28;20204;-59
2021/12/11 07:00:30;;;;;;;19.33;7.67;;;1.10;99.90;;;;;;5085274;28;20247;-59
2021/12/11 07:02:59;;;;;;;18.77;7.63;;;1.10;99.90;;;;;;5085494;28;20208;-59
2021/12/11 07:05:26;;;;;;;14.67;8.20;;;1.20;99.90;;;;;;5083513;28;20209;-59
2021/12/11 07:07:53;;;;;;;13.33;7.30;;;1.20;99.90;;;;;;5085603;28;20201;-59
2021/12/11 07:10:20;;;;;;;14.73;6.93;;;1.20;99.90;;;;;;5085630;28;20545;-59
2021/12/11 07:12:48;;;;;;;16.20;7.37;;;1.10;99.90;;;;;;5087954;28;20192;-58
2021/12/11 07:15:15;;;;;;;12.53;6.90;;;1.20;99.90;;;;;;5090095;28;20264;-59
2021/12/11 07:17:42;;;;;;;13.10;6.70;;;1.20;99.90;;;;;;5085003;28;20213;-59
2021/12/11 07:20:14;;;;;;;14.17;7.33;;;1.20;99.90;;;;;;5094431;28;20685;-59
2021/12/11 07:22:41;;;;;;;12.63;6.33;;;1.20;99.90;;;;;;5094096;28;20646;-59
2021/12/11 07:25:15;;;;;;;12.47;6.27;;;1.20;99.90;;;;;;5093636;28;20200;-58
2021/12/11 07:27:43;;;;;;;12.90;6.50;;;1.20;99.90;;;;;;5092762;28;20194;-58
2021/12/11 07:30:11;;;;;;;16.40;7.60;;;1.20;99.90;;;;;;5094448;28;20189;-58
2021/12/11 07:32:38;;;;;;;16.53;7.13;;;1.30;99.90;;;;;;5092665;28;20243;-58
2021/12/11 07:35:06;;;;;;;17.87;7.67;;;1.30;99.90;;;;;;5094002;28;20261;-58
2021/12/11 07:37:34;;;;;;;16.03;7.47;;;1.40;99.90;;;;;;5093876;28;20565;-58
2021/12/11 07:40:01;;;;;;;14.23;6.73;;;1.40;99.90;;;;;;5086595;28;20661;-57
2021/12/11 07:42:28;;;;;;;14.63;7.17;;;1.40;99.90;;;;;;5084529;28;20220;-59
2021/12/11 07:44:55;;;;;;;15.60;7.13;;;1.50;99.90;;;;;;5084380;28;21231;-59
2021/12/11 07:47:22;;;;;;;22.87;10.17;;;1.50;99.90;;;;;;5082400;28;20223;-59
2021/12/11 07:49:49;;;;;;;22.67;9.00;;;1.50;99.90;;;;;;5085439;28;20196;-59
2021/12/11 07:52:16;;;;;;;14.83;6.77;;;1.50;99.90;;;;;;5087401;28;20202;-60
2021/12/11 07:54:44;;;;;;;12.97;6.83;;;1.50;99.90;;;;;;5081705;28;20431;-59
2021/12/11 07:57:11;;;;;;;16.37;6.93;;;1.50;99.90;;;;;;5084119;28;20284;-60
2021/12/11 07:59:38;;;;;;;17.20;8.27;;;1.60;99.90;;;;;;5084672;28;20272;-60
2021/12/11 08:02:05;;;;;;;18.97;7.60;;;1.60;99.90;;;;;;5084198;28;20280;-60
2021/12/11 08:04:34;;;;;;;13.93;7.23;;;1.60;99.90;;;;;;5084711;28;20296;-60
2021/12/11 08:07:01;;;;;;;13.03;6.30;;;1.60;99.90;;;;;;5084413;28;20237;-60
2021/12/11 08:09:28;;;;;;;18.87;8.03;;;1.60;99.90;;;;;;5084432;28;20645;-59
2021/12/11 08:11:57;;;;;;;18.10;7.83;;;1.60;99.90;;;;;;5084283;28;20189;-60
2021/12/11 08:14:24;;;;;;;15.40;7.27;;;1.60;99.90;;;;;;5082116;28;20224;-61
2021/12/11 08:16:56;;;;;;;14.70;6.57;;;1.60;99.90;;;;;;5085641;28;20288;-60
2021/12/11 08:19:25;;;;;;;18.03;6.90;;;1.60;99.90;;;;;;5102310;28;20814;-59
2021/12/11 08:21:54;;;;;;;14.17;6.33;;;1.60;99.90;;;;;;5105330;28;20338;-60
2021/12/11 08:24:22;;;;;;;13.47;6.53;;;1.70;99.90;;;;;;5105233;28;20228;-60
2021/12/11 08:26:52;;;;;;;15.47;7.33;;;1.80;99.90;;;;;;5105477;28;20503;-59
2021/12/11 08:29:21;;;;;;;14.50;7.10;;;1.90;99.90;;;;;;5106234;28;20271;-60
2021/12/11 08:31:52;;;;;;;17.07;7.30;;;1.90;99.90;;;;;;5105287;28;20208;-60
2021/12/11 08:34:19;;;;;;;11.53;6.23;;;1.90;99.90;;;;;;5105605;28;20196;-59
2021/12/11 08:36:47;;;;;;;12.63;6.17;;;1.80;99.90;;;;;;5105447;28;20200;-60
2021/12/11 08:39:16;;;;;;;11.87;5.83;;;1.80;99.90;;;;;;5105420;28;20642;-59
2021/12/11 08:41:46;;;;;;;16.20;6.77;;;1.90;99.90;;;;;;5104463;28;20220;-59
2021/12/11 08:44:14;;;;;;;12.80;6.17;;;1.90;99.90;;;;;;5105123;28;20276;-58
2021/12/11 08:46:47;;;;;;;14.23;6.07;;;2.00;99.90;;;;;;5105012;28;20201;-60
2021/12/11 08:49:17;;;;;;;12.63;5.90;;;2.00;99.90;;;;;;5105802;28;20271;-59
2021/12/11 08:51:49;;;;;;;10.17;5.40;;;2.00;99.90;;;;;;5105500;28;20756;-59
2021/12/11 08:54:18;;;;;;;13.67;6.07;;;2.00;99.90;;;;;;5105070;28;20215;-58
2021/12/11 08:56:46;;;;;;;13.00;6.13;;;2.10;99.90;;;;;;5105207;28;20207;-60
2021/12/11 08:59:15;;;;;;;11.50;5.20;;;2.10;99.90;;;;;;5105604;28;20287;-59
2021/12/11 09:01:53;;;;;;;11.43;5.70;;;2.00;99.90;;;;;;5104331;28;20287;-59
2021/12/11 09:04:24;;;;;;;14.97;6.17;;;2.00;99.90;;;;;;5105104;28;20267;-59
2021/12/11 09:06:58;;;;;;;12.73;5.13;;;2.00;99.90;;;;;;5105077;28;20275;-58
2021/12/11 09:09:29;;;;;;;13.20;5.53;;;2.00;99.90;;;;;;5104931;28;20232;-59
2021/12/11 09:12:00;;;;;;;15.27;4.50;;;2.00;99.90;;;;;;5105037;28;20196;-59
2021/12/11 09:14:31;;;;;;;14.43;5.63;;;2.00;99.90;;;;;;5105180;28;20282;-60
2021/12/11 09:17:04;;;;;;;13.10;4.77;;;2.00;99.90;;;;;;5104460;28;20204;-62
2021/12/11 09:19:34;;;;;;;11.90;6.07;;;1.90;99.90;;;;;;5105200;28;20188;-61
2021/12/11 09:22:06;;;;;;;23.20;10.07;;;1.90;99.90;;;;;;5104820;28;20226;-61
2021/12/11 09:24:39;;;;;;;12.77;5.63;;;2.00;99.90;;;;;;5104706;28;20200;-61
2021/12/11 09:27:11;;;;;;;9.60;5.03;;;2.10;99.90;;;;;;5104694;28;20232;-62
2021/12/11 09:29:41;;;;;;;13.37;5.30;;;2.10;99.90;;;;;;5105210;28;20195;-62
2021/12/11 09:32:17;;;;;;;13.87;5.33;;;2.00;99.90;;;;;;5104286;28;20200;-61
2021/12/11 09:34:48;;;;;;;11.27;5.40;;;2.00;99.90;;;;;;5104858;28;20673;-61
2021/12/11 09:37:16;;;;;;;15.23;5.80;;;2.00;99.90;;;;;;5088790;28;20197;-60
2021/12/11 09:39:45;;;;;;;12.33;5.43;;;2.00;99.90;;;;;;5084327;28;20222;-60
2021/12/11 09:42:12;;;;;;;14.33;5.97;;;1.90;99.90;;;;;;5077303;28;20217;-61
2021/12/11 09:44:43;;;;;;;10.93;5.13;;;1.80;99.90;;;;;;5083246;28;20216;-61
2021/12/11 09:47:14;;;;;;;11.00;5.63;;;1.80;99.90;;;;;;5083365;28;20211;-60
2021/12/11 09:49:44;;;;;;;10.37;4.87;;;1.80;99.90;;;;;;5084299;28;20189;-60
2021/12/11 09:52:18;;;;;;;11.70;5.10;;;1.80;99.90;;;;;;5084350;28;20182;-61
2021/12/11 09:54:49;;;;;;;10.23;4.50;;;1.80;99.90;;;;;;5083668;28;20255;-61
2021/12/11 09:57:19;;;;;;;12.47;6.47;;;1.70;99.90;;;;;;5083845;28;20265;-61
2021/12/11 09:59:50;;;;;;;15.07;6.10;;;1.70;99.90;;;;;;5083274;28;20559;-60
2021/12/11 10:02:21;;;;;;;14.77;6.23;;;1.70;99.90;;;;;;5083427;28;20216;-61
2021/12/11 10:04:58;;;;;;;11.40;4.90;;;1.70;99.90;;;;;;5083862;28;20300;-59
2021/12/11 10:07:29;;;;;;;11.43;5.27;;;1.70;99.90;;;;;;5083989;28;20266;-59
2021/12/11 10:10:04;;;;;;;11.43;5.30;;;1.80;99.90;;;;;;5083938;28;20259;-61
2021/12/11 10:12:35;;;;;;;13.03;5.67;;;1.90;99.90;;;;;;5083750;28;20248;-61
2021/12/11 10:15:09;;;;;;;10.17;4.43;;;2.00;99.90;;;;;;5084638;28;20288;-60
2021/12/11 10:17:41;;;;;;;14.33;6.10;;;2.00;99.90;;;;;;5086434;28;20235;-59
2021/12/11 10:20:13;;;;;;;17.37;5.87;;;2.00;99.90;;;;;;5087192;28;20257;-59
2021/12/11 10:22:43;;;;;;;16.90;6.27;;;2.00;99.90;;;;;;5087687;28;20205;-59
2021/12/11 10:25:15;;;;;;;13.93;5.83;;;2.10;99.90;;;;;;5087431;28;20264;-59
2021/12/11 10:27:43;;;;;;;11.80;4.67;;;2.10;99.90;;;;;;5088033;28;20190;-59
2021/12/11 10:30:14;;;;;;;13.50;5.37;;;2.20;99.90;;;;;;5087736;28;20636;-59
2021/12/11 10:32:41;;;;;;;12.17;5.00;;;2.20;99.90;;;;;;5087230;28;20201;-59
2021/12/11 10:35:15;;;;;;;10.97;4.90;;;2.30;99.90;;;;;;5087792;28;20241;-62
2021/12/11 10:37:42;;;;;;;12.13;5.07;;;2.30;99.90;;;;;;5087340;28;20620;-63
2021/12/11 10:40:14;;;;;;;15.57;5.80;;;2.30;99.90;;;;;;5087609;28;20294;-63
2021/12/11 10:42:42;;;;;;;13.47;6.23;;;2.30;99.90;;;;;;5087315;28;20202;-61
2021/12/11 10:45:14;;;;;;;14.07;5.70;;;2.40;99.90;;;;;;5087555;28;20201;-61
2021/12/11 10:47:44;;;;;;;11.23;4.97;;;2.50;99.90;;;;;;5087076;28;20239;-60
2021/12/11 10:50:15;;;;;;;14.40;4.97;;;2.50;99.90;;;;;;5087403;28;20616;-61
2021/12/11 10:52:42;;;;;;;14.87;5.20;;;2.50;99.90;;;;;;5087453;28;20269;-60
2021/12/11 10:55:14;;;;;;;14.03;5.07;;;2.50;99.90;;;;;;5086735;28;20215;-61
2021/12/11 10:57:41;;;;;;;17.33;7.10;;;2.50;99.90;;;;;;5086498;28;20383;-59
2021/12/11 11:00:14;;;;;;;13.63;5.27;;;2.50;99.90;;;;;;5067200;28;20273;-62
2021/12/11 11:02:42;;;;;;;12.47;5.33;;;2.50;99.90;;;;;;5066841;28;20683;-61
2021/12/11 11:05:13;;;;;;;9.53;4.97;;;2.50;99.90;;;;;;5066910;28;20277;-64
2021/12/11 11:07:42;;;;;;;14.53;6.23;;;2.50;99.90;;;;;;5066684;28;20210;-59
2021/12/11 11:10:13;;;;;;;11.73;5.30;;;2.50;99.90;;;;;;5067056;28;20225;-60
2021/12/11 11:12:41;;;;;;;13.83;6.20;;;2.50;99.90;;;;;;5066986;28;20186;-61
2021/12/11 11:15:09;;;;;;;13.20;5.33;;;2.50;99.90;;;;;;5066998;28;20281;-61
2021/12/11 11:17:37;;;;;;;13.77;5.67;;;2.60;99.90;;;;;;5066267;28;20288;-59
2021/12/11 11:20:05;;;;;;;14.00;5.93;;;2.60;99.90;;;;;;5067057;28;20271;-59
2021/12/11 11:22:35;;;;;;;14.83;6.13;;;2.60;99.90;;;;;;5078341;28;20223;-59
2021/12/11 11:25:07;;;;;;;15.80;5.87;;;2.70;99.90;;;;;;5086209;28;20221;-61
2021/12/11 11:27:34;;;;;;;11.57;5.90;;;2.70;99.90;;;;;;5085446;28;20734;-59
2021/12/11 11:30:00;;;;;;;13.87;6.07;;;2.60;99.90;;;;;;5086575;28;20547;-60
2021/12/11 11:32:31;;;;;;;13.33;5.77;;;2.60;99.90;;;;;;5086313;28;20201;-60
2021/12/11 11:35:02;;;;;;;13.10;5.17;;;2.60;99.90;;;;;;5086788;28;20209;-59
2021/12/11 11:37:32;;;;;;;18.17;6.03;;;2.60;99.90;;;;;;5085980;28;20220;-59
2021/12/11 11:39:59;;;;;;;12.10;5.50;;;2.60;99.90;;;;;;5086481;28;20251;-60
2021/12/11 11:42:26;;;;;;;12.57;6.07;;;2.60;99.90;;;;;;5085869;28;20306;-60
2021/12/11 11:44:54;;;;;;;12.70;5.87;;;2.60;99.90;;;;;;5086639;28;20272;-59
2021/12/11 11:47:22;;;;;;;14.70;6.63;;;2.60;99.90;;;;;;5085983;28;20212;-60
2021/12/11 11:49:55;;;;;;;13.90;5.40;;;2.60;99.90;;;;;;5086744;28;20205;-60
2021/12/11 11:52:24;;;;;;;12.47;5.53;;;2.70;99.90;;;;;;5086317;28;20177;-60
2021/12/11 11:54:54;;;;;;;11.93;6.37;;;2.70;99.90;;;;;;5085941;28;20288;-60
2021/12/11 11:57:26;;;;;;;15.27;5.80;;;2.80;99.90;;;;;;5085421;28;20197;-60
2021/12/11 11:59:55;;;;;;;15.53;5.67;;;2.80;99.90;;;;;;5084017;28;20216;-60
2021/12/11 12:02:24;;;;;;;9.40;4.97;;;2.90;99.90;;;;;;5085015;28;20221;-60
2021/12/11 12:04:54;;;;;;;15.13;5.77;;;2.90;99.90;;;;;;5085959;28;20200;-60
2021/12/11 12:07:27;;;;;;;12.90;5.60;;;2.90;99.90;;;;;;5085897;28;20273;-60
2021/12/11 12:09:56;;;;;;;10.40;5.57;;;3.00;99.90;;;;;;5086103;28;20722;-60
2021/12/11 12:12:23;;;;;;;16.67;5.63;;;3.10;99.90;;;;;;5085837;28;20216;-60
2021/12/11 12:14:52;;;;;;;15.43;6.13;;;3.20;99.90;;;;;;5085928;28;20770;-60
2021/12/11 12:17:21;;;;;;;12.50;5.43;;;3.30;99.90;;;;;;5085320;28;20296;-60
2021/12/11 12:19:50;;;;;;;15.43;5.87;;;3.30;99.90;;;;;;5085663;28;20272;-59
2021/12/11 12:22:20;;;;;;;14.20;5.30;;;3.40;99.90;;;;;;5085663;28;20647;-59
2021/12/11 12:24:52;;;;;;;12.53;5.23;;;3.40;99.90;;;;;;5085597;28;20205;-58
2021/12/11 12:27:22;;;;;;;15.63;5.37;;;3.40;99.90;;;;;;5085409;28;20232;-60
2021/12/11 12:29:49;;;;;;;13.33;5.27;;;3.40;99.90;;;;;;5085986;28;20243;-59
2021/12/11 12:32:19;;;;;;;14.53;5.17;;;3.50;99.90;;;;;;5085038;28;20229;-59
2021/12/11 12:34:47;;;;;;;10.97;6.00;;;3.50;99.90;;;;;;5085874;28;20245;-59
2021/12/11 12:37:14;;;;;;;11.13;5.47;;;3.50;99.90;;;;;;5085468;28;20291;-59
2021/12/11 12:39:44;;;;;;;12.80;4.60;;;3.60;99.90;;;;;;5085361;28;20620;-59
2021/12/11 12:42:19;;;;;;;11.87;5.23;;;3.60;99.90;;;;;;5085201;28;20243;-59
2021/12/11 12:44:51;;;;;;;10.10;5.30;;;3.60;99.90;;;;;;5085288;28;20189;-59
2021/12/11 12:47:24;;;;;;;8.87;4.87;;;3.60;99.90;;;;;;5084634;28;20283;-60
2021/12/11 12:49:56;;;;;;;9.00;4.50;;;3.60;99.90;;;;;;5085878;28;20200;-59
2021/12/11 12:52:26;;;;;;;11.17;4.63;;;3.60;99.90;;;;;;5085370;28;20284;-59
2021/12/11 12:54:54;;;;;;;11.03;4.37;;;3.60;99.90;;;;;;5084890;28;20268;-59
2021/12/11 12:57:27;;;;;;;12.67;5.30;;;3.60;99.90;;;;;;5084745;28;20215;-59
2021/12/11 13:00:00;;;;;;;8.73;4.60;;;3.60;99.90;;;;;;5085030;28;20190;-58
2021/12/11 13:02:29;;;;;;;6.47;3.80;;;3.60;99.90;;;;;;5082415;28;20209;-58
2021/12/11 13:04:59;;;;;;;8.23;4.20;;;3.70;99.90;;;;;;5084534;28;20300;-58
2021/12/11 13:07:26;;;;;;;11.07;4.77;;;3.70;99.90;;;;;;5084810;28;20291;-58
2021/12/11 13:09:58;;;;;;;10.10;4.87;;;3.70;99.90;;;;;;5084728;28;20319;-60